Terminal Aerodrome Forecast
Issued by NWS

Home | Current Version | Previous Version | Text Only | Print | Product List | Glossary On
Versions: 1 2 3 4 5 6 7 8 9 10 11 12 13 14 15 16 17 18 19 20 21 22 23 24 25 26 27 28 29 30 31 32 33 34 35 36 37 38 39
000
FTUS41 KOKX 210915 AAC
TAFHPN
TAF AMD
KHPN 210915Z 2109/2206 23005KT 2SM BR OVC003
      TEMPO 2110/2112 1SM BR
     FM211400 28005KT 3SM BR OVC010
     FM211800 27006KT 6SM BR BKN012
     FM220000 26002KT 5SM BR BKN010 OVC020
      TEMPO 2202/2206 VRB02KT 1/2SM FG OVC010
      AMD NOT SKED=

USA.gov is the U.S. government's official web portal to all federal, state and local government web resources and services.